createdAt,value
2018-03-25T00:00:53.077Z,7.30
2018-03-25T00:03:19.071Z,5.87
2018-03-25T00:05:45.226Z,5.80
2018-03-25T00:08:11.203Z,6.00
2018-03-25T00:10:37.160Z,6.20
2018-03-25T00:13:03.896Z,6.07
2018-03-25T00:15:30.626Z,7.23
2018-03-25T00:17:56.888Z,5.50
2018-03-25T00:20:23.050Z,5.60
2018-03-25T00:22:49.045Z,6.33
2018-03-25T00:25:15.003Z,5.77
2018-03-25T00:27:41.746Z,6.27
2018-03-25T00:30:07.700Z,5.80
2018-03-25T00:32:34.403Z,5.83
2018-03-25T00:35:00.364Z,6.57
2018-03-25T00:37:26.345Z,5.60
2018-03-25T00:39:52.635Z,6.60
2018-03-25T00:42:19.392Z,6.60
2018-03-25T00:44:45.415Z,5.80
2018-03-25T00:47:11.370Z,5.47
2018-03-25T00:49:37.336Z,5.70
2018-03-25T00:52:04.032Z,6.83
2018-03-25T00:54:30.000Z,6.57
2018-03-25T00:56:56.008Z,6.43
2018-03-25T00:59:21.961Z,6.13
2018-03-25T01:01:47.922Z,5.70
2018-03-25T01:04:14.624Z,6.87
2018-03-25T01:06:40.604Z,6.37
2018-03-25T01:09:07.485Z,6.60
2018-03-25T01:11:33.443Z,6.87
2018-03-25T01:13:59.416Z,6.80
2018-03-25T01:16:25.404Z,6.33
2018-03-25T01:18:51.380Z,5.77
2018-03-25T01:21:18.142Z,5.77
2018-03-25T01:23:44.107Z,5.77
2018-03-25T01:26:10.088Z,6.37
2018-03-25T01:28:36.039Z,6.17
2018-03-25T01:31:02.016Z,6.77
2018-03-25T01:33:28.027Z,6.13
2018-03-25T01:35:54.770Z,5.73
2018-03-25T01:38:21.476Z,6.90
2018-03-25T01:40:47.478Z,6.70
2018-03-25T01:43:14.179Z,6.50
2018-03-25T01:45:40.151Z,6.33
2018-03-25T01:48:06.872Z,6.73
2018-03-25T01:50:32.831Z,6.43
2018-03-25T01:52:58.840Z,6.60
2018-03-25T01:55:24.830Z,6.53
2018-03-25T01:57:51.558Z,6.10
2018-03-25T02:00:18.276Z,7.33
2018-03-25T02:02:44.268Z,6.63
2018-03-25T02:05:10.260Z,7.70
2018-03-25T02:07:36.216Z,7.40
2018-03-25T02:10:03.665Z,7.20
2018-03-25T02:12:29.645Z,7.00
2018-03-25T02:14:56.388Z,7.73
2018-03-25T02:17:23.121Z,7.87
2018-03-25T02:19:49.117Z,6.90
2018-03-25T02:22:15.098Z,6.60
2018-03-25T02:24:41.060Z,6.30
2018-03-25T02:27:07.776Z,7.10
2018-03-25T02:29:33.735Z,7.40
2018-03-25T02:32:00.476Z,6.73
2018-03-25T02:34:27.203Z,7.33
2018-03-25T02:36:53.573Z,6.47
2018-03-25T02:39:20.281Z,7.03
2018-03-25T02:41:46.259Z,7.63
2018-03-25T02:44:12.232Z,7.10
2018-03-25T02:46:38.195Z,6.57
2018-03-25T02:49:04.192Z,7.10
2018-03-25T02:51:30.183Z,6.57
2018-03-25T02:53:56.205Z,6.80
2018-03-25T02:56:22.171Z,7.73
2018-03-25T02:58:48.152Z,6.63
2018-03-25T03:01:14.131Z,7.30
2018-03-25T03:03:40.104Z,7.27
2018-03-25T03:06:06.086Z,6.90
2018-03-25T03:08:32.059Z,5.90
2018-03-25T03:10:59.116Z,7.03
2018-03-25T03:13:25.893Z,6.87
2018-03-25T03:15:51.881Z,6.43
2018-03-25T03:18:17.859Z,6.77
2018-03-25T03:20:44.566Z,7.20
2018-03-25T03:23:10.552Z,8.07
2018-03-25T03:25:36.519Z,7.13
2018-03-25T03:28:02.516Z,6.67
2018-03-25T03:30:29.256Z,7.27
2018-03-25T03:32:55.247Z,7.53
2018-03-25T03:35:21.203Z,7.30
2018-03-25T03:37:47.176Z,7.07
2018-03-25T03:40:13.150Z,7.10
2018-03-25T03:42:39.136Z,7.10
2018-03-25T03:45:05.849Z,8.03
2018-03-25T03:47:31.825Z,7.60
2018-03-25T03:49:58.586Z,7.17
2018-03-25T03:52:25.316Z,6.93
2018-03-25T03:54:52.028Z,7.63
2018-03-25T03:57:17.977Z,7.47
2018-03-25T03:59:44.273Z,7.17
2018-03-25T04:02:10.241Z,6.80
2018-03-25T04:04:36.211Z,7.80
2018-03-25T04:07:02.189Z,7.13
2018-03-25T04:09:28.168Z,7.40
2018-03-25T04:11:54.161Z,6.90
2018-03-25T04:14:20.128Z,7.63
2018-03-25T04:16:46.120Z,7.23
2018-03-25T04:19:12.088Z,7.87
2018-03-25T04:21:38.075Z,7.20
2018-03-25T04:24:04.773Z,8.37
2018-03-25T04:26:30.750Z,8.17
2018-03-25T04:28:56.719Z,6.63
2018-03-25T04:31:22.692Z,7.60
2018-03-25T04:33:48.652Z,7.17
2018-03-25T04:36:14.651Z,7.17
2018-03-25T04:38:40.624Z,6.47
2018-03-25T04:41:06.583Z,7.20
2018-03-25T04:43:33.712Z,7.87
2018-03-25T04:45:59.710Z,6.83
2018-03-25T04:48:25.720Z,7.43
2018-03-25T04:50:51.684Z,6.80
2018-03-25T04:53:17.640Z,7.40
2018-03-25T04:55:43.611Z,7.50
2018-03-25T04:58:10.332Z,7.23
2018-03-25T05:00:36.296Z,6.77
2018-03-25T05:03:03.010Z,6.90
2018-03-25T05:05:29.184Z,7.87
2018-03-25T05:07:55.171Z,7.53
2018-03-25T05:10:21.143Z,8.90
2018-03-25T05:12:47.091Z,8.47
2018-03-25T05:15:13.800Z,7.37
2018-03-25T05:17:39.764Z,7.50
2018-03-25T05:20:05.752Z,6.90
2018-03-25T05:22:31.718Z,6.30
2018-03-25T05:24:57.720Z,7.20
2018-03-25T05:27:23.729Z,7.40
2018-03-25T05:29:50.428Z,6.87
2018-03-25T05:32:16.452Z,7.63
2018-03-25T05:34:42.412Z,7.07
2018-03-25T05:37:08.381Z,7.40
2018-03-25T05:39:35.101Z,7.73
2018-03-25T05:42:08.008Z,7.30
2018-03-25T05:44:33.963Z,7.67
2018-03-25T05:46:59.937Z,6.20
2018-03-25T05:49:25.928Z,7.43
2018-03-25T05:51:51.896Z,6.77
2018-03-25T05:54:17.873Z,7.20
2018-03-25T05:56:43.839Z,6.70
2018-03-25T05:59:09.796Z,7.77
2018-03-25T06:01:35.769Z,8.63
2018-03-25T06:04:01.748Z,5.90
2018-03-25T06:06:28.463Z,6.13
2018-03-25T06:08:54.507Z,6.93
2018-03-25T06:11:20.459Z,6.50
2018-03-25T06:13:46.469Z,9.93
2018-03-25T06:16:12.423Z,8.77
2018-03-25T06:18:45.722Z,6.97
2018-03-25T06:21:11.696Z,7.33
2018-03-25T06:23:38.401Z,7.90
2018-03-25T06:26:04.399Z,7.60
2018-03-25T06:28:31.108Z,7.57
2018-03-25T06:30:57.104Z,7.33
2018-03-25T06:33:23.132Z,8.00
2018-03-25T06:35:49.109Z,7.47
2018-03-25T06:38:15.076Z,8.07
2018-03-25T06:40:41.792Z,8.17
2018-03-25T06:43:07.772Z,6.77
2018-03-25T06:45:33.768Z,6.60
2018-03-25T06:47:59.738Z,7.40
2018-03-25T06:50:26.468Z,8.13
2018-03-25T06:52:52.426Z,7.90
2018-03-25T06:55:19.147Z,8.37
2018-03-25T06:57:45.120Z,8.60
2018-03-25T07:00:11.843Z,9.27
2018-03-25T07:02:37.804Z,9.17
2018-03-25T07:05:04.542Z,9.97
2018-03-25T07:07:31.269Z,9.23
2018-03-25T07:09:57.268Z,9.37
2018-03-25T07:12:23.295Z,8.97
2018-03-25T07:14:49.252Z,9.70
2018-03-25T07:17:15.240Z,9.33
2018-03-25T07:19:41.936Z,10.23
2018-03-25T07:22:08.240Z,9.80
2018-03-25T07:24:34.960Z,9.40
2018-03-25T07:27:00.972Z,9.13
2018-03-25T07:29:27.057Z,9.70
2018-03-25T07:31:53.748Z,10.33
2018-03-25T07:34:19.737Z,10.03
2018-03-25T07:36:45.712Z,9.73
2018-03-25T07:39:11.706Z,9.47
2018-03-25T07:41:37.665Z,9.83
2018-03-25T07:44:04.384Z,10.27
2018-03-25T07:46:30.426Z,10.10
2018-03-25T07:48:56.468Z,10.83
2018-03-25T07:51:22.462Z,10.37
2018-03-25T07:53:48.426Z,10.83
2018-03-25T07:56:14.396Z,9.97
2018-03-25T07:58:41.116Z,10.53
2018-03-25T08:01:07.104Z,10.47
2018-03-25T08:03:33.052Z,11.00
2018-03-25T08:05:59.081Z,10.67
2018-03-25T08:08:25.155Z,11.13
2018-03-25T08:10:51.214Z,11.10
2018-03-25T08:13:17.212Z,10.33
2018-03-25T08:15:43.188Z,10.83
2018-03-25T08:18:09.146Z,11.60
2018-03-25T08:20:35.887Z,10.60
2018-03-25T08:23:02.622Z,11.37
2018-03-25T08:25:28.718Z,10.53
2018-03-25T08:27:54.814Z,11.57
2018-03-25T08:30:20.768Z,10.37
2018-03-25T08:32:46.728Z,10.57
2018-03-25T08:35:13.096Z,12.27
2018-03-25T08:37:39.063Z,10.73
2018-03-25T08:40:05.793Z,11.73
2018-03-25T08:42:31.809Z,11.33
2018-03-25T08:44:58.176Z,11.00
2018-03-25T08:47:24.295Z,12.03
2018-03-25T08:49:50.286Z,11.47
2018-03-25T08:52:17.405Z,11.97
2018-03-25T08:54:43.364Z,12.00
2018-03-25T08:57:10.080Z,11.27
2018-03-25T08:59:36.051Z,12.33
2018-03-25T09:02:02.192Z,12.10
2018-03-25T09:04:28.177Z,11.77
2018-03-25T09:06:54.213Z,12.40
2018-03-25T09:09:20.194Z,12.43
2018-03-25T09:11:46.154Z,11.77
2018-03-25T09:14:12.860Z,11.77
2018-03-25T09:16:38.812Z,11.77
2018-03-25T09:19:04.784Z,11.63
2018-03-25T09:21:30.824Z,12.70
2018-03-25T09:23:56.823Z,12.27
2018-03-25T09:26:22.792Z,11.80
2018-03-25T09:28:48.799Z,12.67
2018-03-25T09:31:15.508Z,12.37
2018-03-25T09:33:41.874Z,12.83
2018-03-25T09:36:07.836Z,12.13
2018-03-25T09:38:34.571Z,12.90
2018-03-25T09:41:01.312Z,13.57
2018-03-25T09:43:27.337Z,12.87
2018-03-25T09:45:53.375Z,13.73
2018-03-25T09:48:19.328Z,14.80
2018-03-25T09:50:45.332Z,13.00
2018-03-25T09:53:11.291Z,12.17
2018-03-25T09:55:37.431Z,14.03
2018-03-25T09:58:03.412Z,13.50
2018-03-25T10:00:36.146Z,14.23
2018-03-25T10:03:04.960Z,13.60
2018-03-25T10:05:30.945Z,14.53
2018-03-25T10:07:57.694Z,14.00
2018-03-25T10:10:24.473Z,14.50
2018-03-25T10:12:50.444Z,14.47
2018-03-25T10:15:16.408Z,13.07
2018-03-25T10:17:42.395Z,14.03
2018-03-25T10:20:08.368Z,13.77
2018-03-25T10:22:34.331Z,13.43
2018-03-25T10:25:01.103Z,14.10
2018-03-25T10:27:27.808Z,14.30
2018-03-25T10:29:53.848Z,15.20
2018-03-25T10:32:20.556Z,14.53
2018-03-25T10:34:46.536Z,13.77
2018-03-25T10:37:12.535Z,15.67
2018-03-25T10:39:38.519Z,15.43
2018-03-25T10:42:05.223Z,15.23
2018-03-25T10:44:31.258Z,14.47
2018-03-25T10:46:57.261Z,14.33
2018-03-25T10:49:23.236Z,14.63
2018-03-25T10:51:49.212Z,13.53
2018-03-25T10:54:15.929Z,14.17
2018-03-25T10:56:41.904Z,13.93
2018-03-25T10:59:08.602Z,12.90
2018-03-25T11:01:34.576Z,13.60
2018-03-25T11:04:00.601Z,13.87
2018-03-25T11:06:26.638Z,14.07
2018-03-25T11:08:52.604Z,13.43
2018-03-25T11:11:19.311Z,13.67
2018-03-25T11:13:45.771Z,13.63
2018-03-25T11:16:11.740Z,13.13
2018-03-25T11:18:38.457Z,12.70
2018-03-25T11:21:04.456Z,14.13
2018-03-25T11:23:30.455Z,14.50
2018-03-25T11:25:57.201Z,11.97
2018-03-25T11:28:23.170Z,12.17
2018-03-25T11:30:49.144Z,13.27
2018-03-25T11:33:15.108Z,12.77
2018-03-25T11:35:41.108Z,12.57
2018-03-25T11:38:07.063Z,13.20
2018-03-25T11:40:33.026Z,12.50
2018-03-25T11:42:59.800Z,13.47
2018-03-25T11:45:26.550Z,14.00
2018-03-25T11:47:52.522Z,11.93
2018-03-25T11:50:18.476Z,11.80
2018-03-25T11:52:44.485Z,12.83
2018-03-25T11:55:17.380Z,11.67
2018-03-25T11:57:43.356Z,13.70
2018-03-25T12:00:09.333Z,13.47
2018-03-25T12:02:35.295Z,12.77
2018-03-25T12:05:01.272Z,12.17
2018-03-25T12:07:27.279Z,15.63
2018-03-25T12:09:54.244Z,13.87
2018-03-25T12:12:20.218Z,12.37
2018-03-25T12:14:46.935Z,11.80
2018-03-25T12:17:12.928Z,12.53
2018-03-25T12:19:38.918Z,13.80
2018-03-25T12:22:04.896Z,14.07
2018-03-25T12:24:30.896Z,12.97
2018-03-25T12:26:57.636Z,12.73
2018-03-25T12:29:23.788Z,13.00
2018-03-25T12:31:49.737Z,13.33
2018-03-25T12:34:16.448Z,12.83
2018-03-25T12:36:42.407Z,13.43
2018-03-25T12:39:08.392Z,13.03
2018-03-25T12:41:34.371Z,12.93
2018-03-25T12:44:00.447Z,14.37
2018-03-25T12:46:26.484Z,12.90
2018-03-25T12:48:52.473Z,12.77
2018-03-25T12:51:18.411Z,13.63
2018-03-25T12:53:44.373Z,12.47
2018-03-25T12:56:11.080Z,12.83
2018-03-25T12:58:37.066Z,14.53
2018-03-25T13:01:03.792Z,14.47
2018-03-25T13:03:29.813Z,13.53
2018-03-25T13:05:55.886Z,12.33
2018-03-25T13:08:22.608Z,12.70
2018-03-25T13:10:48.594Z,12.77
2018-03-25T13:13:14.563Z,11.90
2018-03-25T13:15:40.529Z,13.70
2018-03-25T13:18:06.502Z,10.73
2018-03-25T13:20:32.512Z,13.40
2018-03-25T13:22:58.511Z,12.87
2018-03-25T13:25:24.532Z,12.50
2018-03-25T13:27:50.516Z,13.37
2018-03-25T13:30:17.269Z,12.63
2018-03-25T13:32:43.984Z,13.57
2018-03-25T13:35:09.976Z,14.47
2018-03-25T13:37:36.702Z,11.93
2018-03-25T13:40:02.708Z,13.80
2018-03-25T13:42:28.778Z,13.30
2018-03-25T13:44:54.787Z,14.10
2018-03-25T13:47:20.772Z,13.07
2018-03-25T13:49:47.490Z,14.50
2018-03-25T13:52:13.464Z,13.63
2018-03-25T13:54:39.480Z,13.43
2018-03-25T13:57:06.190Z,12.40
2018-03-25T13:59:32.567Z,12.23
2018-03-25T14:01:58.698Z,12.70
2018-03-25T14:04:24.709Z,13.87
2018-03-25T14:06:50.692Z,13.60
2018-03-25T14:09:17.405Z,13.47
2018-03-25T14:11:43.387Z,14.13
2018-03-25T14:14:10.125Z,13.37
2018-03-25T14:16:36.113Z,14.07
2018-03-25T14:19:02.116Z,13.83
2018-03-25T14:21:28.542Z,14.10
2018-03-25T14:23:55.337Z,13.10
2018-03-25T14:26:21.300Z,13.90
2018-03-25T14:28:47.293Z,13.17
2018-03-25T14:31:13.276Z,12.80
2018-03-25T14:33:39.267Z,13.83
2018-03-25T14:36:05.252Z,13.67
2018-03-25T14:38:31.265Z,13.53
2018-03-25T14:40:57.244Z,13.30
2018-03-25T14:43:24.154Z,12.70
2018-03-25T14:45:50.164Z,12.20
2018-03-25T14:48:16.140Z,13.87
2018-03-25T14:50:42.135Z,13.13
2018-03-25T14:53:08.116Z,13.23
2018-03-25T14:55:34.141Z,12.23
2018-03-25T14:58:00.209Z,13.00
2018-03-25T15:00:26.233Z,13.13
2018-03-25T15:02:52.244Z,12.40
2018-03-25T15:05:18.409Z,12.07
2018-03-25T15:07:44.385Z,11.87
2018-03-25T15:10:11.102Z,12.33
2018-03-25T15:12:37.098Z,11.87
2018-03-25T15:15:03.096Z,11.83
2018-03-25T15:17:30.013Z,12.33
2018-03-25T15:19:56.148Z,11.10
2018-03-25T15:22:22.144Z,12.73
2018-03-25T15:24:48.104Z,12.30
2018-03-25T15:27:14.092Z,12.80
2018-03-25T15:29:40.796Z,12.57
2018-03-25T15:32:06.788Z,11.10
2018-03-25T15:34:33.504Z,12.27
2018-03-25T15:36:59.468Z,12.47
2018-03-25T15:39:25.469Z,12.77
2018-03-25T15:41:51.427Z,11.53
2018-03-25T15:44:17.414Z,11.93
2018-03-25T15:46:43.407Z,13.57
2018-03-25T15:49:10.555Z,12.37
2018-03-25T15:51:36.525Z,11.17
2018-03-25T15:54:03.254Z,12.07
2018-03-25T15:56:29.362Z,12.53
2018-03-25T15:58:55.360Z,13.67
2018-03-25T16:01:21.383Z,9.93
2018-03-25T16:03:48.088Z,12.57
2018-03-25T16:06:14.048Z,11.33
2018-03-25T16:08:40.045Z,11.97
2018-03-25T16:11:06.017Z,10.53
2018-03-25T16:13:32.131Z,11.50
2018-03-25T16:15:58.207Z,11.40
2018-03-25T16:18:24.257Z,11.03
2018-03-25T16:20:51.270Z,10.73
2018-03-25T16:23:17.244Z,12.03
2018-03-25T16:25:43.992Z,9.20
2018-03-25T16:28:09.970Z,9.87
2018-03-25T16:30:36.045Z,9.77
2018-03-25T16:33:02.123Z,10.73
2018-03-25T16:35:28.257Z,10.27
2018-03-25T16:37:54.401Z,9.13
2018-03-25T16:40:20.402Z,11.07
2018-03-25T16:42:46.424Z,9.97
2018-03-25T16:45:12.414Z,9.87
2018-03-25T16:47:38.440Z,9.13
2018-03-25T16:50:04.437Z,9.50
2018-03-25T16:52:30.492Z,8.93
2018-03-25T16:54:56.687Z,10.07
2018-03-25T16:57:22.665Z,9.37
2018-03-25T16:59:48.645Z,9.33
2018-03-25T17:02:14.609Z,9.10
2018-03-25T17:04:40.598Z,9.60
2018-03-25T17:07:07.313Z,10.20
2018-03-25T17:09:33.362Z,9.17
2018-03-25T17:11:59.388Z,8.70
2018-03-25T17:14:25.449Z,9.07
2018-03-25T17:16:52.202Z,8.50
2018-03-25T17:19:18.901Z,9.00
2018-03-25T17:21:44.896Z,8.20
2018-03-25T17:24:11.609Z,8.20
2018-03-25T17:26:37.960Z,8.70
2018-03-25T17:29:03.950Z,9.30
2018-03-25T17:31:30.117Z,9.23
2018-03-25T17:33:56.196Z,9.10
2018-03-25T17:36:22.957Z,8.70
2018-03-25T17:38:48.961Z,9.27
2018-03-25T17:41:14.940Z,9.07
2018-03-25T17:43:40.940Z,9.23
2018-03-25T17:46:06.923Z,8.27
2018-03-25T17:48:32.900Z,7.53
2018-03-25T17:50:58.911Z,8.07
2018-03-25T17:53:24.992Z,7.93
2018-03-25T17:55:51.013Z,7.40
2018-03-25T17:58:16.963Z,6.73
2018-03-25T18:00:42.952Z,8.03
2018-03-25T18:03:08.920Z,8.37
2018-03-25T18:05:35.051Z,7.43
2018-03-25T18:08:01.071Z,6.60
2018-03-25T18:10:27.292Z,7.40
2018-03-25T18:12:53.292Z,6.83
2018-03-25T18:15:20.009Z,7.30
2018-03-25T18:17:45.984Z,6.10
2018-03-25T18:20:12.720Z,6.47
2018-03-25T18:22:38.699Z,6.10
2018-03-25T18:25:04.776Z,6.03
2018-03-25T18:27:30.795Z,6.13
2018-03-25T18:29:56.803Z,6.60
2018-03-25T18:32:22.796Z,5.63
2018-03-25T18:34:48.748Z,7.27
2018-03-25T18:37:15.528Z,7.13
2018-03-25T18:39:41.435Z,6.73
2018-03-25T18:42:08.128Z,6.13
2018-03-25T18:44:34.193Z,7.70
2018-03-25T18:47:02.189Z,7.53
2018-03-25T18:49:28.233Z,7.83
2018-03-25T18:51:54.213Z,8.83
2018-03-25T18:54:20.171Z,7.60
2018-03-25T18:56:46.139Z,7.00
2018-03-25T18:59:12.126Z,6.40
2018-03-25T19:01:38.099Z,5.90
2018-03-25T19:04:04.096Z,5.63
2018-03-25T19:06:30.127Z,5.37
2018-03-25T19:08:56.162Z,5.30
2018-03-25T19:11:22.133Z,5.40
2018-03-25T19:13:48.481Z,7.07
2018-03-25T19:16:14.456Z,7.23
2018-03-25T19:18:41.156Z,7.73
2018-03-25T19:21:07.112Z,6.30
2018-03-25T19:23:33.108Z,6.07
2018-03-25T19:25:59.125Z,6.47
2018-03-25T19:28:25.158Z,7.17
2018-03-25T19:30:51.137Z,6.70
2018-03-25T19:33:17.109Z,6.90
2018-03-25T19:35:44.240Z,6.27
2018-03-25T19:38:10.213Z,7.33
2018-03-25T19:40:36.968Z,6.33
2018-03-25T19:43:02.930Z,7.37
2018-03-25T19:45:28.947Z,8.13
2018-03-25T19:47:55.715Z,7.97
2018-03-25T19:50:21.689Z,8.43
2018-03-25T19:52:47.665Z,6.67
2018-03-25T19:55:14.387Z,7.43
2018-03-25T19:57:40.362Z,6.20
2018-03-25T20:00:07.065Z,7.57
2018-03-25T20:02:33.056Z,5.47
2018-03-25T20:04:59.057Z,8.17
2018-03-25T20:07:25.073Z,6.67
2018-03-25T20:09:51.055Z,5.77
2018-03-25T20:12:17.757Z,6.47
2018-03-25T20:14:43.727Z,7.30
2018-03-25T20:17:09.691Z,6.53
2018-03-25T20:19:35.690Z,5.97
2018-03-25T20:22:01.736Z,7.43
2018-03-25T20:24:28.173Z,8.23
2018-03-25T20:26:54.954Z,6.93
2018-03-25T20:29:20.936Z,7.50
2018-03-25T20:31:46.908Z,8.37
2018-03-25T20:34:12.875Z,8.93
2018-03-25T20:36:38.848Z,8.53
2018-03-25T20:39:04.852Z,8.70
2018-03-25T20:41:31.281Z,9.13
2018-03-25T20:43:57.273Z,9.20
2018-03-25T20:46:24.117Z,9.13
2018-03-25T20:48:50.088Z,9.90
2018-03-25T20:51:16.792Z,9.67
2018-03-25T20:53:42.771Z,8.60
2018-03-25T20:56:09.504Z,8.90
2018-03-25T20:58:35.482Z,9.57
2018-03-25T21:01:02.214Z,9.60
2018-03-25T21:03:28.278Z,9.50
2018-03-25T21:05:54.274Z,8.50
2018-03-25T21:08:20.224Z,9.50
2018-03-25T21:10:46.180Z,9.13
2018-03-25T21:13:12.145Z,10.37
2018-03-25T21:15:38.115Z,10.00
2018-03-25T21:18:04.163Z,8.87
2018-03-25T21:20:30.937Z,9.67
2018-03-25T21:22:57.685Z,10.27
2018-03-25T21:25:23.665Z,8.57
2018-03-25T21:27:49.645Z,10.70
2018-03-25T21:30:16.348Z,9.73
2018-03-25T21:32:42.344Z,10.13
2018-03-25T21:35:09.045Z,9.40
2018-03-25T21:37:35.000Z,10.40
2018-03-25T21:40:01.093Z,10.43
2018-03-25T21:42:27.108Z,10.63
2018-03-25T21:44:53.149Z,10.10
2018-03-25T21:47:19.225Z,10.30
2018-03-25T21:49:45.196Z,12.20
2018-03-25T21:52:11.148Z,12.57
2018-03-25T21:54:37.856Z,11.73
2018-03-25T21:57:03.830Z,12.67
2018-03-25T21:59:29.856Z,11.70
2018-03-25T22:01:55.967Z,12.03
2018-03-25T22:04:21.921Z,13.40
2018-03-25T22:06:47.901Z,12.90
2018-03-25T22:09:13.900Z,12.27
2018-03-25T22:11:40.624Z,12.33
2018-03-25T22:14:06.661Z,12.57
2018-03-25T22:16:33.321Z,12.10
2018-03-25T22:18:59.310Z,14.33
2018-03-25T22:21:25.353Z,13.93
2018-03-25T22:23:51.331Z,14.37
2018-03-25T22:26:17.309Z,13.87
2018-03-25T22:28:43.284Z,14.73
2018-03-25T22:31:09.443Z,13.67
2018-03-25T22:33:36.880Z,14.10
2018-03-25T22:36:02.903Z,14.90
2018-03-25T22:38:28.901Z,14.90
2018-03-25T22:40:54.908Z,15.50
2018-03-25T22:43:22.377Z,14.93
2018-03-25T22:45:48.341Z,15.13
2018-03-25T22:48:14.764Z,16.07
2018-03-25T22:50:40.727Z,16.03
2018-03-25T22:53:07.431Z,15.30
2018-03-25T22:55:33.406Z,15.40
2018-03-25T22:57:59.418Z,15.97
2018-03-25T23:00:25.478Z,16.17
2018-03-25T23:02:51.453Z,14.50
2018-03-25T23:05:17.424Z,15.67
2018-03-25T23:07:43.408Z,15.63
2018-03-25T23:10:10.123Z,16.40
2018-03-25T23:12:36.104Z,15.90
2018-03-25T23:15:02.072Z,16.23
2018-03-25T23:17:28.115Z,16.67
2018-03-25T23:19:54.132Z,15.23
2018-03-25T23:22:20.092Z,15.00
2018-03-25T23:24:46.061Z,18.03
2018-03-25T23:27:12.769Z,16.77
2018-03-25T23:29:38.756Z,15.83
2018-03-25T23:32:05.448Z,15.77
2018-03-25T23:34:31.454Z,15.47
2018-03-25T23:36:57.454Z,16.00
2018-03-25T23:39:23.492Z,15.97
2018-03-25T23:41:49.476Z,17.03
2018-03-25T23:44:15.445Z,16.20
2018-03-25T23:46:41.439Z,16.47
2018-03-25T23:49:07.412Z,17.30
2018-03-25T23:51:33.376Z,16.37
2018-03-25T23:53:59.356Z,17.30
2018-03-25T23:56:25.462Z,17.20
2018-03-25T23:58:51.451Z,16.60
